createdAt,value
2023-02-28T00:00:48.124Z,6.63
2023-02-28T00:03:50.600Z,6.47
2023-02-28T00:06:52.308Z,5.82
2023-02-28T00:09:54.102Z,6.30
2023-02-28T00:12:59.897Z,5.68
2023-02-28T00:16:06.255Z,5.60
2023-02-28T00:19:08.312Z,5.50
2023-02-28T00:22:10.782Z,6.72
2023-02-28T00:25:16.334Z,6.80
2023-02-28T00:28:18.295Z,6.93
2023-02-28T00:31:20.158Z,6.40
2023-02-28T00:34:23.689Z,6.10
2023-02-28T00:37:25.477Z,6.53
2023-02-28T00:40:27.577Z,5.93
2023-02-28T00:43:29.385Z,6.45
2023-02-28T00:46:31.153Z,6.05
2023-02-28T00:49:33.502Z,6.32
2023-02-28T00:52:35.324Z,6.10
2023-02-28T00:55:37.165Z,6.32
2023-02-28T00:58:39.917Z,6.13
2023-02-28T01:01:42.124Z,6.72
2023-02-28T01:04:44.029Z,5.65
2023-02-28T01:07:45.868Z,6.30
2023-02-28T01:10:47.611Z,5.75
2023-02-28T01:13:49.508Z,5.60
2023-02-28T01:16:52.679Z,5.82
2023-02-28T01:19:56.562Z,6.78
2023-02-28T01:23:00.406Z,6.40
2023-02-28T01:26:15.052Z,6.32
2023-02-28T01:29:16.813Z,6.38
2023-02-28T01:32:18.696Z,6.40
2023-02-28T01:35:20.929Z,6.28
2023-02-28T01:38:23.527Z,6.50
2023-02-28T01:41:28.775Z,6.25
2023-02-28T01:44:55.282Z,5.95
2023-02-28T01:48:01.716Z,5.85
2023-02-28T01:51:13.215Z,6.18
2023-02-28T01:54:19.345Z,6.30
2023-02-28T01:57:28.772Z,6.90
2023-02-28T02:03:32.962Z,6.75
2023-02-28T02:06:53.228Z,7.22
2023-02-28T02:10:03.859Z,7.45
2023-02-28T02:13:42.984Z,7.00
2023-02-28T02:16:53.704Z,7.00
2023-02-28T02:20:32.901Z,7.20
2023-02-28T02:23:34.717Z,7.07
2023-02-28T02:26:59.345Z,6.68
2023-02-28T02:30:36.495Z,6.07
2023-02-28T02:33:50.071Z,5.93
2023-02-28T02:36:54.548Z,6.15
2023-02-28T02:40:06.085Z,6.55
2023-02-28T02:43:11.997Z,6.60
2023-02-28T02:46:20.983Z,5.88
2023-02-28T02:49:27.540Z,6.50
2023-02-28T02:52:41.380Z,6.72
2023-02-28T02:55:48.113Z,6.38
2023-02-28T02:58:53.461Z,6.77
2023-02-28T03:02:02.697Z,6.57
2023-02-28T03:05:14.013Z,6.90
2023-02-28T03:08:17.098Z,6.50
2023-02-28T03:11:21.487Z,7.32
2023-02-28T03:14:50.189Z,6.10
2023-02-28T03:18:05.524Z,7.20
2023-02-28T03:21:38.203Z,6.43
2023-02-28T03:25:09.504Z,7.80
2023-02-28T03:28:23.872Z,7.22
2023-02-28T03:31:38.826Z,7.68
2023-02-28T03:34:47.875Z,8.23
2023-02-28T03:38:21.478Z,7.97
2023-02-28T03:41:28.915Z,6.60
2023-02-28T03:44:36.118Z,8.05
2023-02-28T03:47:46.539Z,7.35
2023-02-28T03:50:56.637Z,7.38
2023-02-28T03:54:06.287Z,7.72
2023-02-28T03:57:17.378Z,8.20
2023-02-28T04:00:22.479Z,8.18
2023-02-28T04:03:24.686Z,8.90
2023-02-28T04:06:27.326Z,7.82
2023-02-28T04:09:29.077Z,8.45
2023-02-28T04:12:30.831Z,7.00
2023-02-28T04:15:33.094Z,7.40
2023-02-28T04:18:34.867Z,8.20
2023-02-28T04:21:51.290Z,8.13
2023-02-28T04:24:55.399Z,8.10
2023-02-28T04:27:57.188Z,7.93
2023-02-28T04:35:47.407Z,9.73
2023-02-28T04:38:49.116Z,15.52
2023-02-28T04:41:51.163Z,19.08
2023-02-28T04:44:52.878Z,16.08
2023-02-28T04:47:54.722Z,10.80
2023-02-28T04:50:56.643Z,10.05
2023-02-28T04:53:58.539Z,9.13
2023-02-28T04:57:00.373Z,8.70
2023-02-28T05:00:02.192Z,8.65
2023-02-28T05:03:04.071Z,8.80
2023-02-28T05:06:06.701Z,9.38
2023-02-28T05:09:08.523Z,8.70
2023-02-28T05:12:10.557Z,9.30
2023-02-28T05:15:15.109Z,9.35
2023-02-28T05:18:16.979Z,9.18
2023-02-28T05:21:32.543Z,9.35
2023-02-28T05:24:34.619Z,8.88
2023-02-28T05:27:36.799Z,10.40
2023-02-28T05:30:38.538Z,8.98
2023-02-28T05:33:40.760Z,10.93
2023-02-28T05:36:43.168Z,10.48
2023-02-28T05:39:45.387Z,9.20
2023-02-28T05:42:48.208Z,9.05
2023-02-28T05:45:50.089Z,9.35
2023-02-28T05:48:52.566Z,8.80
2023-02-28T05:51:54.920Z,8.77
2023-02-28T05:54:57.086Z,8.32
2023-02-28T05:57:59.145Z,9.13
2023-02-28T06:01:02.412Z,8.48
2023-02-28T06:04:06.682Z,8.88
2023-02-28T06:07:09.521Z,8.63
2023-02-28T06:10:12.791Z,9.48
2023-02-28T06:13:14.590Z,8.63
2023-02-28T06:16:16.327Z,9.10
2023-02-28T06:19:18.368Z,8.60
2023-02-28T06:22:20.182Z,8.43
2023-02-28T06:25:21.961Z,8.60
2023-02-28T06:28:23.682Z,8.43
2023-02-28T06:31:27.144Z,8.82
2023-02-28T06:34:29.045Z,10.40
2023-02-28T06:37:32.598Z,11.20
2023-02-28T06:40:36.152Z,15.05
2023-02-28T06:43:42.392Z,20.90
2023-02-28T06:46:46.220Z,20.35
2023-02-28T06:49:48.368Z,25.80
2023-02-28T06:52:54.869Z,19.25
2023-02-28T06:55:56.742Z,17.85
2023-02-28T06:58:58.474Z,13.73
2023-02-28T07:02:00.245Z,11.80
2023-02-28T07:05:02.199Z,8.93
2023-02-28T07:08:05.378Z,9.45
2023-02-28T07:11:07.191Z,9.25
2023-02-28T07:14:09.016Z,8.75
2023-02-28T07:17:13.314Z,8.57
2023-02-28T07:20:15.108Z,7.95
2023-02-28T07:23:17.745Z,8.45
2023-02-28T07:26:21.061Z,8.38
2023-02-28T07:29:23.060Z,7.80
2023-02-28T07:32:24.816Z,7.80
2023-02-28T07:35:26.742Z,8.10
2023-02-28T07:38:28.509Z,7.65
2023-02-28T07:41:31.341Z,8.18
2023-02-28T07:44:33.573Z,8.30
2023-02-28T07:47:35.410Z,7.65
2023-02-28T07:50:37.322Z,8.25
2023-02-28T07:53:39.160Z,8.18
2023-02-28T07:56:41.029Z,8.90
2023-02-28T07:59:44.732Z,8.25
2023-02-28T08:02:47.972Z,8.07
2023-02-28T08:05:50.216Z,7.82
2023-02-28T08:08:52.140Z,8.25
2023-02-28T08:11:53.984Z,8.00
2023-02-28T08:14:55.745Z,7.93
2023-02-28T08:17:57.830Z,7.57
2023-02-28T08:21:00.285Z,8.30
2023-02-28T08:24:02.237Z,8.10
2023-02-28T08:27:04.096Z,8.18
2023-02-28T08:30:06.626Z,7.82
2023-02-28T08:33:08.412Z,9.68
2023-02-28T08:36:10.631Z,12.32
2023-02-28T08:39:13.360Z,9.73
2023-02-28T08:42:15.237Z,8.35
2023-02-28T08:45:17.301Z,7.82
2023-02-28T08:48:19.706Z,8.20
2023-02-28T08:51:27.492Z,7.88
2023-02-28T08:54:32.455Z,8.02
2023-02-28T08:57:34.395Z,7.40
2023-02-28T09:00:37.719Z,7.90
2023-02-28T09:03:39.838Z,7.93
2023-02-28T09:06:41.787Z,8.02
2023-02-28T09:09:54.736Z,8.25
2023-02-28T09:12:56.696Z,7.90
2023-02-28T09:15:59.599Z,8.75
2023-02-28T09:19:02.052Z,8.90
2023-02-28T09:22:03.913Z,8.45
2023-02-28T09:25:06.084Z,7.72
2023-02-28T09:28:08.022Z,8.73
2023-02-28T09:31:25.654Z,8.52
2023-02-28T09:34:28.977Z,8.50
2023-02-28T09:37:32.174Z,11.18
2023-02-28T09:40:38.692Z,8.65
2023-02-28T09:43:48.550Z,9.27
2023-02-28T09:46:55.223Z,8.65
2023-02-28T09:50:04.438Z,9.30
2023-02-28T09:53:23.546Z,7.93
2023-02-28T09:56:32.389Z,7.90
2023-02-28T09:59:40.411Z,7.63
2023-02-28T10:02:59.320Z,8.85
2023-02-28T10:06:28.620Z,7.50
2023-02-28T10:12:47.146Z,8.23
2023-02-28T10:16:05.853Z,7.82
2023-02-28T10:19:17.873Z,7.97
2023-02-28T10:22:34.885Z,7.65
2023-02-28T10:25:39.247Z,7.90
2023-02-28T10:28:41.512Z,7.93
2023-02-28T10:31:44.117Z,7.40
2023-02-28T10:34:52.678Z,7.05
2023-02-28T10:37:58.280Z,7.93
2023-02-28T10:41:09.093Z,7.50
2023-02-28T10:44:26.313Z,6.30
2023-02-28T10:47:35.837Z,6.95
2023-02-28T10:50:51.464Z,6.80
2023-02-28T10:54:02.981Z,7.10
2023-02-28T10:57:29.619Z,6.95
2023-02-28T11:00:38.852Z,6.57
2023-02-28T11:03:43.334Z,7.15
2023-02-28T11:06:46.565Z,6.90
2023-02-28T11:09:57.213Z,6.88
2023-02-28T11:13:00.980Z,6.82
2023-02-28T11:16:11.525Z,6.75
2023-02-28T11:19:25.123Z,7.60
2023-02-28T11:22:32.387Z,6.38
2023-02-28T11:25:39.256Z,7.25
2023-02-28T11:28:43.430Z,7.55
2023-02-28T11:31:45.195Z,6.93
2023-02-28T11:35:04.050Z,6.70
2023-02-28T11:38:13.781Z,7.65
2023-02-28T11:41:44.088Z,8.32
2023-02-28T11:44:58.440Z,6.82
2023-02-28T11:48:12.309Z,5.85
2023-02-28T11:51:35.358Z,6.07
2023-02-28T11:55:08.494Z,6.95
2023-02-28T11:58:31.684Z,5.53
2023-02-28T12:01:46.420Z,6.70
2023-02-28T12:04:48.767Z,6.35
2023-02-28T12:08:41.665Z,6.15
2023-02-28T12:11:56.957Z,6.93
2023-02-28T12:15:20.584Z,6.43
2023-02-28T12:18:45.367Z,6.00
2023-02-28T12:22:24.866Z,6.15
2023-02-28T12:28:37.532Z,7.25
2023-02-28T12:31:56.284Z,6.50
2023-02-28T12:35:14.340Z,6.15
2023-02-28T12:38:22.299Z,6.57
2023-02-28T12:41:31.234Z,5.95
2023-02-28T12:44:36.027Z,5.90
2023-02-28T12:47:41.544Z,6.15
2023-02-28T12:50:44.475Z,6.15
2023-02-28T12:54:18.770Z,5.82
2023-02-28T12:57:27.993Z,6.40
2023-02-28T13:00:52.793Z,5.70
2023-02-28T13:04:19.444Z,6.07
2023-02-28T13:07:30.392Z,5.90
2023-02-28T13:10:45.389Z,6.20
2023-02-28T13:13:47.302Z,6.18
2023-02-28T13:17:15.099Z,6.63
2023-02-28T13:20:25.244Z,5.90
2023-02-28T13:23:44.943Z,6.55
2023-02-28T13:26:49.736Z,6.05
2023-02-28T13:29:53.702Z,6.00
2023-02-28T13:33:21.237Z,6.53
2023-02-28T13:36:24.313Z,7.28
2023-02-28T13:39:36.006Z,6.57
2023-02-28T13:42:50.798Z,6.85
2023-02-28T13:46:12.586Z,6.88
2023-02-28T13:49:24.048Z,6.75
2023-02-28T13:52:26.401Z,7.10
2023-02-28T13:55:53.072Z,6.40
2023-02-28T13:59:15.952Z,6.80
2023-02-28T14:02:43.846Z,6.80
2023-02-28T14:05:46.087Z,6.53
2023-02-28T14:08:55.055Z,7.40
2023-02-28T14:11:57.739Z,6.68
2023-02-28T14:14:59.617Z,6.88
2023-02-28T14:18:03.770Z,7.00
2023-02-28T14:21:08.277Z,6.32
2023-02-28T14:24:34.476Z,6.97
2023-02-28T14:28:11.201Z,6.38
2023-02-28T14:31:20.524Z,5.80
2023-02-28T14:34:36.056Z,5.97
2023-02-28T14:37:40.937Z,6.30
2023-02-28T14:40:43.332Z,6.25
2023-02-28T14:43:56.573Z,5.60
2023-02-28T14:47:05.444Z,6.28
2023-02-28T14:50:10.165Z,6.65
2023-02-28T14:53:19.095Z,6.43
2023-02-28T14:56:28.750Z,7.47
2023-02-28T14:59:36.748Z,8.25
2023-02-28T15:02:40.130Z,8.15
2023-02-28T15:05:42.045Z,8.20
2023-02-28T15:08:44.167Z,8.60
2023-02-28T15:11:51.422Z,7.95
2023-02-28T15:14:53.175Z,7.60
2023-02-28T15:17:59.987Z,8.30
2023-02-28T15:21:13.034Z,8.63
2023-02-28T15:24:26.687Z,9.10
2023-02-28T15:27:33.088Z,8.52
2023-02-28T15:30:34.894Z,8.77
2023-02-28T15:33:36.703Z,9.10
2023-02-28T15:36:38.472Z,8.50
2023-02-28T15:39:45.441Z,9.70
2023-02-28T15:43:07.394Z,9.73
2023-02-28T15:46:12.412Z,10.55
2023-02-28T15:49:21.986Z,11.05
2023-02-28T15:52:38.729Z,12.05
2023-02-28T15:55:40.920Z,10.85
2023-02-28T15:58:43.576Z,11.13
2023-02-28T16:01:45.864Z,11.55
2023-02-28T16:05:01.541Z,11.10
2023-02-28T16:08:16.375Z,11.65
2023-02-28T16:11:19.724Z,13.43
2023-02-28T16:14:24.485Z,14.65
2023-02-28T16:17:29.418Z,13.40
2023-02-28T16:20:32.113Z,12.55
2023-02-28T16:23:34.062Z,11.95
2023-02-28T16:26:38.465Z,11.45
2023-02-28T16:29:40.673Z,11.88
2023-02-28T16:32:42.997Z,11.73
2023-02-28T16:35:44.865Z,12.57
2023-02-28T16:38:46.915Z,11.80
2023-02-28T16:41:50.064Z,10.82
2023-02-28T16:44:53.135Z,11.57
2023-02-28T16:47:56.257Z,12.20
2023-02-28T16:50:58.385Z,12.43
2023-02-28T16:54:05.917Z,15.25
2023-02-28T16:57:24.130Z,22.83
2023-02-28T17:00:28.339Z,30.63
2023-02-28T17:03:33.666Z,27.88
2023-02-28T17:06:35.812Z,23.92
2023-02-28T17:09:43.146Z,17.33
2023-02-28T17:12:47.054Z,15.43
2023-02-28T17:15:49.094Z,14.18
2023-02-28T17:18:51.946Z,13.63
2023-02-28T17:21:53.844Z,13.73
2023-02-28T17:24:59.774Z,17.85
2023-02-28T17:28:01.599Z,20.25
2023-02-28T17:31:03.589Z,22.73
2023-02-28T17:34:19.303Z,28.25
2023-02-28T17:37:22.362Z,26.58
2023-02-28T17:40:24.801Z,23.25
2023-02-28T17:43:27.893Z,21.88
2023-02-28T17:46:29.960Z,23.02
2023-02-28T17:49:32.188Z,16.77
2023-02-28T17:52:37.725Z,15.27
2023-02-28T17:55:39.852Z,15.20
2023-02-28T17:58:41.573Z,13.32
2023-02-28T18:01:43.543Z,13.40
2023-02-28T18:04:45.356Z,13.63
2023-02-28T18:07:47.630Z,13.52
2023-02-28T18:10:49.447Z,14.35
2023-02-28T18:13:53.923Z,15.38
2023-02-28T18:16:56.422Z,16.30
2023-02-28T18:19:58.383Z,16.10
2023-02-28T18:23:00.697Z,16.38
2023-02-28T18:26:02.866Z,17.50
2023-02-28T18:29:05.795Z,16.52
2023-02-28T18:32:08.912Z,15.15
2023-02-28T18:35:10.599Z,16.52
2023-02-28T18:38:22.608Z,15.05
2023-02-28T18:41:24.660Z,15.93
2023-02-28T18:44:26.672Z,16.58
2023-02-28T18:47:28.709Z,16.15
2023-02-28T18:50:30.516Z,15.15
2023-02-28T18:53:32.212Z,15.25
2023-02-28T18:56:34.142Z,16.35
2023-02-28T18:59:36.681Z,16.50
2023-02-28T19:02:38.546Z,16.30
2023-02-28T19:05:40.396Z,29.02
2023-02-28T19:08:42.405Z,30.25
2023-02-28T19:11:44.163Z,23.27
2023-02-28T19:14:46.811Z,17.48
2023-02-28T19:17:48.795Z,20.30
2023-02-28T19:20:50.618Z,21.25
2023-02-28T19:23:52.953Z,22.38
2023-02-28T19:26:54.761Z,27.73
2023-02-28T19:29:59.233Z,31.40
2023-02-28T19:33:01.025Z,26.67
2023-02-28T19:36:02.825Z,23.27
2023-02-28T19:39:06.203Z,20.13
2023-02-28T19:42:15.214Z,23.33
2023-02-28T19:45:17.050Z,19.67
2023-02-28T19:48:18.831Z,16.67
2023-02-28T19:51:20.745Z,17.30
2023-02-28T19:54:22.493Z,17.23
2023-02-28T19:57:24.421Z,13.55
2023-02-28T20:00:26.258Z,14.93
2023-02-28T20:03:28.153Z,18.77
2023-02-28T20:06:34.363Z,15.93
2023-02-28T20:09:36.177Z,14.38
2023-02-28T20:12:38.217Z,15.38
2023-02-28T20:15:40.114Z,18.50
2023-02-28T20:18:44.303Z,16.38
2023-02-28T20:21:46.240Z,17.67
2023-02-28T20:24:48.640Z,21.58
2023-02-28T20:27:50.386Z,20.20
2023-02-28T20:30:52.254Z,24.00
2023-02-28T20:33:54.309Z,22.88
2023-02-28T20:36:59.712Z,16.95
2023-02-28T20:40:01.576Z,14.60
2023-02-28T20:43:03.574Z,13.43
2023-02-28T20:46:05.715Z,14.77
2023-02-28T20:49:07.764Z,16.10
2023-02-28T20:52:09.532Z,13.88
2023-02-28T20:55:15.067Z,13.80
2023-02-28T20:58:16.905Z,13.15
2023-02-28T21:01:25.837Z,12.82
2023-02-28T21:04:27.944Z,13.13
2023-02-28T21:07:30.511Z,12.95
2023-02-28T21:10:33.060Z,19.33
2023-02-28T21:13:34.781Z,29.08
2023-02-28T21:16:38.059Z,27.70
2023-02-28T21:19:40.392Z,23.05
2023-02-28T21:22:42.190Z,17.63
2023-02-28T21:25:44.021Z,16.25
2023-02-28T21:28:53.949Z,15.57
2023-02-28T21:31:55.754Z,16.50
2023-02-28T21:34:57.549Z,17.33
2023-02-28T21:37:59.344Z,16.33
2023-02-28T21:41:13.015Z,16.38
2023-02-28T21:44:18.861Z,14.75
2023-02-28T21:47:20.692Z,14.13
2023-02-28T21:50:22.401Z,14.82
2023-02-28T21:53:24.305Z,14.20
2023-02-28T21:56:29.281Z,14.15
2023-02-28T21:59:31.559Z,14.55
2023-02-28T22:02:33.412Z,14.07
2023-02-28T22:05:35.243Z,13.70
2023-02-28T22:08:36.964Z,13.13
2023-02-28T22:11:39.759Z,14.50
2023-02-28T22:14:42.301Z,13.35
2023-02-28T22:17:44.057Z,13.68
2023-02-28T22:20:45.772Z,13.63
2023-02-28T22:23:47.888Z,13.55
2023-02-28T22:26:51.045Z,13.98
2023-02-28T22:29:56.230Z,12.93
2023-02-28T22:32:58.011Z,13.48
2023-02-28T22:36:05.628Z,14.63
2023-02-28T22:39:07.397Z,14.43
2023-02-28T22:42:09.805Z,13.70
2023-02-28T22:45:11.941Z,14.13
2023-02-28T22:48:13.736Z,14.15
2023-02-28T22:51:18.168Z,14.15
2023-02-28T22:54:20.372Z,13.68
2023-02-28T22:57:22.263Z,13.75
2023-02-28T23:00:24.146Z,13.98
2023-02-28T23:03:26.510Z,13.95
2023-02-28T23:06:35.014Z,14.48
2023-02-28T23:09:37.493Z,14.25
2023-02-28T23:12:50.300Z,13.25
2023-02-28T23:15:52.111Z,14.32
2023-02-28T23:18:54.106Z,14.25
2023-02-28T23:21:57.216Z,13.75
2023-02-28T23:24:58.964Z,14.55
2023-02-28T23:28:01.154Z,13.68
2023-02-28T23:31:04.597Z,15.10
2023-02-28T23:34:06.848Z,14.80
2023-02-28T23:37:09.647Z,13.20
2023-02-28T23:40:13.173Z,13.93
2023-02-28T23:43:14.975Z,13.90
2023-02-28T23:46:17.119Z,14.30
2023-02-28T23:49:20.102Z,17.67
2023-02-28T23:52:22.256Z,24.52
2023-02-28T23:55:24.719Z,22.20
2023-02-28T23:58:26.833Z,23.98
